Mijn Webcam Meer informatie Mijn Webcam


webcam richting noord-oost Meer informatie webcam facing north-east


Regen radar Meer informatie rain snow radar


Bezoek onze andere website:

Template documentation
and downloads

And another site


CBI



METAR rapporten vliegvelden

   
EHGG - Groningen/Eelde
Gewijzigd: 18-02-2018 03:55
Nevel, Helder  
Nevel, Helder  
   Wind: ZZO 2,1 m/s
Wind: ZZO 2,1 m/s
Temperatuur: -2°C
Voelt als: -5°C
Dauwpunt: -3°C
Vochtigheid: 93%
Barometer: 1026 hPa
Bewolking: Helder
Zicht: 4 km
Bewolking: Helder
EHGG 180255Z AUTO 15004KT 3600 BR NCD M02/M03 Q1026
EHMA - Schiermonnikoog
Gewijzigd: 18-02-2018 03:55
Helder  
Helder  
   Wind: Zuiden 7,7 m/s
Wind: Zuiden 7,7 m/s
Temperatuur: 1°C
Voelt als: -5°C
Dauwpunt: -1°C
Vochtigheid: 87%
Barometer: 1025 hPa
Bewolking: Helder
Zicht: 9 km
Bewolking: Helder
EHMA 180255Z AUTO 19015KT 9000 NCD 01/M01 Q1025 W///H///
EHMG - Terschelling
Gewijzigd: 18-02-2018 03:55
Helder  
Helder  
   Wind: Zuiden 8,7 m/s
Wind: Zuiden 8,7 m/s
Temperatuur: 4°C
Voelt als: -1°C
Dauwpunt: 0°C
Vochtigheid: 75%
Barometer: 1024 hPa
Bewolking: Helder
Zicht: More then 10 km
Bewolking: Helder
EHMG 180255Z AUTO 19017KT 9999 NCD 04/M00 Q1024 W///H///
EHVL - Vlieland
Gewijzigd: 18-02-2018 03:55
Nevel, Helder  
Nevel, Helder  
   Wind: Zuiden 4,6 m/s
Wind: Zuiden 4,6 m/s
Temperatuur: 1°C
Voelt als: -3°C
Dauwpunt: 0°C
Vochtigheid: 93%
Barometer: 1025 hPa
Bewolking: Helder
Zicht: 7 km
Bewolking: Helder
EHVL 180255Z AUTO 18009KT 7000 BR NCD 01/M00 Q1025 WHT
ETWM - Meppen, Germany
Gewijzigd: 18-02-2018 04:20
  
  
   Wind: varieert 0,5 m/s
Wind: varieert 0,5 m/s
Temperatuur: -3°C
Dauwpunt: -4°C
Vochtigheid: 93%
Barometer: 1026 hPa
Zicht: 1 km
ETWM 180320Z AUTO VRB01KT 0450 // ////// M03/M04 Q1026 ///
 

Script ontwikkeld door  Saratoga-weather.org Aangepast voor de template door  Weerstation Leuven

U vindt ons ook hier:

Het Weer Aktueel

UK Metoffice

European Weather Network

WeatherCloud

Weather Underground

Benelux Weer Netwerk

AWEKAS

WeatherlinkIP

HAMweather, WeatherForYou, PWS Weather

Apparatuur in gebruik:

Weerstation
Davis VP2 Plus

Weerprogramma
Cumulus

Weercomputer
ASUS Eee Box B202

Webleverancier
Antagonist

Davis VP2 Plus

Cumulus

ASUS Eee Box B202

Antagonist